createdAt,value
2019-06-27T00:00:09.715Z,10.93
2019-06-27T00:02:38.191Z,11.53
2019-06-27T00:05:07.207Z,10.30
2019-06-27T00:07:36.069Z,10.30
2019-06-27T00:10:07.225Z,10.17
2019-06-27T00:12:35.697Z,10.37
2019-06-27T00:15:05.450Z,11.00
2019-06-27T00:17:33.899Z,11.20
2019-06-27T00:20:02.485Z,11.30
2019-06-27T00:22:30.966Z,11.13
2019-06-27T00:24:59.703Z,10.10
2019-06-27T00:27:28.175Z,11.07
2019-06-27T00:29:56.638Z,11.03
2019-06-27T00:32:25.094Z,10.90
2019-06-27T00:34:53.620Z,10.20
2019-06-27T00:37:22.071Z,10.70
2019-06-27T00:39:50.495Z,10.37
2019-06-27T00:42:19.271Z,10.83
2019-06-27T00:44:47.799Z,10.40
2019-06-27T00:47:16.334Z,10.40
2019-06-27T00:49:44.768Z,11.83
2019-06-27T00:52:13.608Z,11.37
2019-06-27T00:54:42.059Z,11.50
2019-06-27T00:57:14.466Z,11.80
2019-06-27T00:59:41.414Z,11.40
2019-06-27T01:02:10.417Z,11.37
2019-06-27T01:04:38.898Z,11.37
2019-06-27T01:07:07.716Z,11.93
2019-06-27T01:09:36.446Z,13.30
2019-06-27T01:12:05.265Z,11.83
2019-06-27T01:14:34.303Z,11.63
2019-06-27T01:17:03.012Z,11.60
2019-06-27T01:19:31.794Z,11.47
2019-06-27T01:22:00.616Z,11.30
2019-06-27T01:24:29.063Z,10.90
2019-06-27T01:26:57.515Z,11.57
2019-06-27T01:29:26.355Z,10.67
2019-06-27T01:31:59.446Z,10.90
2019-06-27T01:34:27.890Z,11.07
2019-06-27T01:36:56.349Z,11.40
2019-06-27T01:39:25.158Z,11.50
2019-06-27T01:41:53.961Z,10.70
2019-06-27T01:44:40.114Z,12.33
2019-06-27T01:47:09.346Z,11.50
2019-06-27T01:49:38.144Z,11.37
2019-06-27T01:52:06.746Z,11.47
2019-06-27T01:54:35.506Z,11.30
2019-06-27T01:57:04.036Z,11.47
2019-06-27T01:59:32.874Z,12.60
2019-06-27T02:02:01.755Z,10.97
2019-06-27T02:04:30.198Z,11.67
2019-06-27T02:06:59.025Z,11.00
2019-06-27T02:09:27.470Z,11.37
2019-06-27T02:11:55.923Z,11.00
2019-06-27T02:14:24.374Z,11.17
2019-06-27T02:16:52.927Z,12.23
2019-06-27T02:19:21.731Z,12.03
2019-06-27T02:21:50.158Z,13.27
2019-06-27T02:24:18.730Z,12.00
2019-06-27T02:26:47.475Z,11.87
2019-06-27T02:29:16.366Z,11.90
2019-06-27T02:31:45.158Z,11.77
2019-06-27T02:34:13.595Z,11.13
2019-06-27T02:36:42.058Z,12.07
2019-06-27T02:39:10.515Z,11.83
2019-06-27T02:41:38.970Z,11.10
2019-06-27T02:44:07.765Z,12.77
2019-06-27T02:46:36.210Z,12.40
2019-06-27T02:49:04.671Z,11.97
2019-06-27T02:51:33.119Z,12.17
2019-06-27T02:54:01.590Z,11.10
2019-06-27T02:56:30.017Z,12.87
2019-06-27T02:58:58.485Z,13.00
2019-06-27T03:01:26.921Z,12.63
2019-06-27T03:04:01.708Z,14.17
2019-06-27T03:06:30.522Z,12.97
2019-06-27T03:08:58.987Z,12.80
2019-06-27T03:11:27.504Z,12.00
2019-06-27T03:13:56.268Z,13.33
2019-06-27T03:16:25.156Z,13.23
2019-06-27T03:18:53.618Z,13.80
2019-06-27T03:21:22.564Z,13.43
2019-06-27T03:23:51.420Z,12.60
2019-06-27T03:26:19.859Z,12.57
2019-06-27T03:28:52.945Z,12.50
2019-06-27T03:31:18.806Z,13.40
2019-06-27T03:33:47.287Z,12.30
2019-06-27T03:36:16.120Z,12.50
2019-06-27T03:38:44.620Z,11.80
2019-06-27T03:41:13.129Z,12.33
2019-06-27T03:43:41.586Z,11.60
2019-06-27T03:46:10.394Z,10.93
2019-06-27T03:48:44.207Z,11.90
2019-06-27T03:51:13.094Z,12.63
2019-06-27T03:53:41.992Z,12.40
2019-06-27T03:56:10.886Z,12.30
2019-06-27T03:58:39.656Z,12.13
2019-06-27T04:01:08.260Z,12.03
2019-06-27T04:03:36.843Z,11.83
2019-06-27T04:06:05.275Z,12.60
2019-06-27T04:08:33.769Z,13.00
2019-06-27T04:11:02.284Z,12.27
2019-06-27T04:13:31.150Z,12.90
2019-06-27T04:15:59.604Z,12.70
2019-06-27T04:18:28.521Z,13.10
2019-06-27T04:20:57.322Z,13.37
2019-06-27T04:23:25.786Z,13.70
2019-06-27T04:25:54.235Z,12.77
2019-06-27T04:28:22.715Z,13.40
2019-06-27T04:30:51.231Z,12.30
2019-06-27T04:33:20.041Z,12.73
2019-06-27T04:35:48.563Z,12.50
2019-06-27T04:38:17.010Z,12.77
2019-06-27T04:40:45.760Z,12.03
2019-06-27T04:43:14.659Z,12.67
2019-06-27T04:45:43.097Z,12.23
2019-06-27T04:48:11.607Z,12.67
2019-06-27T04:50:40.143Z,13.13
2019-06-27T04:53:08.986Z,12.70
2019-06-27T04:55:37.454Z,12.87
2019-06-27T04:58:05.902Z,12.10
2019-06-27T05:00:34.448Z,12.17
2019-06-27T05:03:05.255Z,12.97
2019-06-27T05:05:33.716Z,13.83
2019-06-27T05:08:02.438Z,12.70
2019-06-27T05:10:30.894Z,12.87
2019-06-27T05:12:59.710Z,11.67
2019-06-27T05:15:28.187Z,12.13
2019-06-27T05:17:56.629Z,12.00
2019-06-27T05:20:25.078Z,12.70
2019-06-27T05:22:53.806Z,12.20
2019-06-27T05:25:29.302Z,12.53
2019-06-27T05:27:55.836Z,12.70
2019-06-27T05:30:24.362Z,13.43
2019-06-27T05:32:52.802Z,13.60
2019-06-27T05:35:21.834Z,12.40
2019-06-27T05:37:56.297Z,13.50
2019-06-27T05:40:25.043Z,13.57
2019-06-27T05:42:53.486Z,12.53
2019-06-27T05:45:22.420Z,13.53
2019-06-27T05:47:50.967Z,12.83
2019-06-27T05:50:20.634Z,13.70
2019-06-27T05:52:49.442Z,13.40
2019-06-27T05:55:18.180Z,12.57
2019-06-27T05:57:46.617Z,12.57
2019-06-27T06:00:27.293Z,12.97
2019-06-27T06:02:45.727Z,13.07
2019-06-27T06:05:14.475Z,11.53
2019-06-27T06:07:43.243Z,12.47
2019-06-27T06:10:12.153Z,11.83
2019-06-27T06:12:40.605Z,11.03
2019-06-27T06:15:09.204Z,12.60
2019-06-27T06:17:37.718Z,11.60
2019-06-27T06:20:08.021Z,11.93
2019-06-27T06:22:36.775Z,11.90
2019-06-27T06:25:06.272Z,11.13
2019-06-27T06:27:35.021Z,11.23
2019-06-27T06:30:04.635Z,11.70
2019-06-27T06:32:33.063Z,11.37
2019-06-27T06:35:01.572Z,11.60
2019-06-27T06:37:30.434Z,10.67
2019-06-27T06:39:58.918Z,10.80
2019-06-27T06:42:27.694Z,11.37
2019-06-27T06:44:56.133Z,10.63
2019-06-27T06:47:24.661Z,11.20
2019-06-27T06:49:53.091Z,10.70
2019-06-27T06:52:21.541Z,11.33
2019-06-27T06:54:50.298Z,11.33
2019-06-27T06:57:19.179Z,10.80
2019-06-27T06:59:47.711Z,9.70
2019-06-27T07:02:16.176Z,10.57
2019-06-27T07:04:44.930Z,10.17
2019-06-27T07:07:13.413Z,10.00
2019-06-27T07:09:42.193Z,9.33
2019-06-27T07:12:10.647Z,9.70
2019-06-27T07:14:39.461Z,9.40
2019-06-27T07:17:08.246Z,8.97
2019-06-27T07:19:36.670Z,9.30
2019-06-27T07:22:05.274Z,9.63
2019-06-27T07:24:33.981Z,9.00
2019-06-27T07:27:02.522Z,9.50
2019-06-27T07:29:31.271Z,9.20
2019-06-27T07:32:00.065Z,8.83
2019-06-27T07:34:28.491Z,9.60
2019-06-27T07:36:56.914Z,9.50
2019-06-27T07:39:25.685Z,8.50
2019-06-27T07:41:54.122Z,8.93
2019-06-27T07:44:22.565Z,9.23
2019-06-27T07:46:51.033Z,9.53
2019-06-27T07:49:19.814Z,9.10
2019-06-27T07:51:48.263Z,8.63
2019-06-27T07:54:17.081Z,9.03
2019-06-27T07:56:46.463Z,9.57
2019-06-27T07:59:15.200Z,8.57
2019-06-27T08:01:43.666Z,8.70
2019-06-27T08:04:12.121Z,9.07
2019-06-27T08:06:40.576Z,8.77
2019-06-27T08:09:09.000Z,9.07
2019-06-27T08:11:37.455Z,9.20
2019-06-27T08:14:06.194Z,9.00
2019-06-27T08:16:34.943Z,9.47
2019-06-27T08:19:03.389Z,8.80
2019-06-27T08:21:31.849Z,9.57
2019-06-27T08:24:00.287Z,9.83
2019-06-27T08:26:28.713Z,9.43
2019-06-27T08:28:57.439Z,9.00
2019-06-27T08:31:25.865Z,9.73
2019-06-27T08:33:54.711Z,9.00
2019-06-27T08:36:23.153Z,9.80
2019-06-27T08:38:51.612Z,9.77
2019-06-27T08:41:20.043Z,10.07
2019-06-27T08:43:48.486Z,9.57
2019-06-27T08:46:17.206Z,9.40
2019-06-27T08:48:45.727Z,9.63
2019-06-27T08:51:14.486Z,9.27
2019-06-27T08:53:42.929Z,9.40
2019-06-27T08:56:11.383Z,10.23
2019-06-27T08:58:40.124Z,10.07
2019-06-27T09:01:08.578Z,10.10
2019-06-27T09:03:37.487Z,9.40
2019-06-27T09:06:05.917Z,9.20
2019-06-27T09:08:34.650Z,10.10
2019-06-27T09:11:03.094Z,9.87
2019-06-27T09:13:31.604Z,9.97
2019-06-27T09:16:00.406Z,9.20
2019-06-27T09:18:29.286Z,9.33
2019-06-27T09:20:57.733Z,9.43
2019-06-27T09:23:26.661Z,9.57
2019-06-27T09:25:55.117Z,9.37
2019-06-27T09:28:23.558Z,9.03
2019-06-27T09:30:52.030Z,8.90
2019-06-27T09:33:20.481Z,9.83
2019-06-27T09:35:48.912Z,9.23
2019-06-27T09:38:17.852Z,9.90
2019-06-27T09:40:46.642Z,9.03
2019-06-27T09:43:15.422Z,10.70
2019-06-27T09:45:43.849Z,9.60
2019-06-27T09:48:12.583Z,8.77
2019-06-27T09:50:41.032Z,9.60
2019-06-27T09:53:09.565Z,9.10
2019-06-27T09:55:38.018Z,9.60
2019-06-27T09:58:06.811Z,9.33
2019-06-27T10:00:35.235Z,8.50
2019-06-27T10:03:03.693Z,8.37
2019-06-27T10:05:32.165Z,8.53
2019-06-27T10:08:00.619Z,7.70
2019-06-27T10:10:29.070Z,8.10
2019-06-27T10:12:57.898Z,8.07
2019-06-27T10:15:26.410Z,8.23
2019-06-27T10:17:55.162Z,7.87
2019-06-27T10:20:23.622Z,7.10
2019-06-27T10:22:52.117Z,7.30
2019-06-27T10:25:20.547Z,8.30
2019-06-27T10:27:49.273Z,6.83
2019-06-27T10:30:20.013Z,7.17
2019-06-27T10:32:58.611Z,7.03
2019-06-27T10:35:18.622Z,6.67
2019-06-27T10:37:47.057Z,6.30
2019-06-27T10:40:15.834Z,7.20
2019-06-27T10:42:44.563Z,6.97
2019-06-27T10:45:13.129Z,6.60
2019-06-27T10:47:41.555Z,6.43
2019-06-27T10:50:10.838Z,6.50
2019-06-27T10:52:39.342Z,7.07
2019-06-27T10:55:07.865Z,7.30
2019-06-27T10:57:36.582Z,7.47
2019-06-27T11:00:09.385Z,7.20
2019-06-27T11:02:37.794Z,6.47
2019-06-27T11:05:07.948Z,6.37
2019-06-27T11:07:37.327Z,6.60
2019-06-27T11:10:07.328Z,6.50
2019-06-27T11:12:36.051Z,6.00
2019-06-27T11:15:06.649Z,6.87
2019-06-27T11:17:35.077Z,7.83
2019-06-27T11:20:04.749Z,7.37
2019-06-27T11:22:33.456Z,7.20
2019-06-27T11:25:02.303Z,7.40
2019-06-27T11:27:30.778Z,8.00
2019-06-27T11:29:59.244Z,7.27
2019-06-27T11:32:27.678Z,8.07
2019-06-27T11:34:56.119Z,7.33
2019-06-27T11:37:24.565Z,7.00
2019-06-27T11:40:00.756Z,7.27
2019-06-27T11:42:29.987Z,6.27
2019-06-27T11:44:58.807Z,7.40
2019-06-27T11:47:27.274Z,6.60
2019-06-27T11:49:55.711Z,6.10
2019-06-27T11:52:26.456Z,6.10
2019-06-27T11:54:54.294Z,6.40
2019-06-27T11:57:22.750Z,6.27
2019-06-27T11:59:51.178Z,6.23
2019-06-27T12:02:19.642Z,6.67
2019-06-27T12:04:48.375Z,6.30
2019-06-27T12:07:17.381Z,5.90
2019-06-27T12:09:45.831Z,5.80
2019-06-27T12:12:15.083Z,6.00
2019-06-27T12:14:43.574Z,5.80
2019-06-27T12:17:12.058Z,5.50
2019-06-27T12:19:40.490Z,5.40
2019-06-27T12:22:09.224Z,5.50
2019-06-27T12:24:37.747Z,5.37
2019-06-27T12:27:06.298Z,5.23
2019-06-27T12:29:36.429Z,5.63
2019-06-27T12:32:04.919Z,4.90
2019-06-27T12:34:34.581Z,4.87
2019-06-27T12:37:03.541Z,4.73
2019-06-27T12:39:51.277Z,4.90
2019-06-27T12:42:31.924Z,4.43
2019-06-27T12:44:50.257Z,4.47
2019-06-27T12:47:19.068Z,4.50
2019-06-27T12:50:01.209Z,4.20
2019-06-27T12:52:17.599Z,4.10
2019-06-27T12:54:46.262Z,3.53
2019-06-27T12:57:14.686Z,3.87
2019-06-27T12:59:43.471Z,3.80
2019-06-27T13:02:11.905Z,3.87
2019-06-27T13:04:40.370Z,3.63
2019-06-27T13:07:08.781Z,3.70
2019-06-27T13:09:37.502Z,3.90
2019-06-27T13:12:06.191Z,3.70
2019-06-27T13:14:34.595Z,3.50
2019-06-27T13:17:03.007Z,3.53
2019-06-27T13:19:31.406Z,2.83
2019-06-27T13:21:59.821Z,3.10
2019-06-27T13:24:28.226Z,2.60
2019-06-27T13:26:56.954Z,2.80
2019-06-27T13:29:26.959Z,2.67
2019-06-27T13:31:55.509Z,2.67
2019-06-27T13:34:39.370Z,2.77
2019-06-27T13:36:54.383Z,2.73
2019-06-27T13:39:22.787Z,2.50
2019-06-27T13:41:51.235Z,2.47
2019-06-27T13:44:20.001Z,2.50
2019-06-27T13:46:48.437Z,2.30
2019-06-27T13:49:16.899Z,2.23
2019-06-27T13:51:54.453Z,2.10
2019-06-27T13:54:22.858Z,2.37
2019-06-27T13:56:51.266Z,2.60
2019-06-27T13:59:19.677Z,2.43
2019-06-27T14:01:48.094Z,1.90
2019-06-27T14:04:16.511Z,2.40
2019-06-27T14:06:44.906Z,2.60
2019-06-27T14:09:23.090Z,2.30
2019-06-27T14:11:43.465Z,2.20
2019-06-27T14:14:12.209Z,2.37
2019-06-27T14:16:40.611Z,2.10
2019-06-27T14:19:09.033Z,2.30
2019-06-27T14:21:37.459Z,2.10
2019-06-27T14:24:05.866Z,2.23
2019-06-27T14:26:34.280Z,2.27
2019-06-27T14:29:02.754Z,2.80
2019-06-27T14:31:31.214Z,2.80
2019-06-27T14:33:59.963Z,2.47
2019-06-27T14:36:28.726Z,2.30
2019-06-27T14:38:57.428Z,2.60
2019-06-27T14:41:25.840Z,2.33
2019-06-27T14:43:54.581Z,2.30
2019-06-27T14:46:22.982Z,2.10
2019-06-27T14:48:51.398Z,2.30
2019-06-27T14:51:19.801Z,2.07
2019-06-27T14:53:48.214Z,1.90
2019-06-27T14:56:16.634Z,2.00
2019-06-27T14:58:45.074Z,1.80
2019-06-27T15:01:13.470Z,2.03
2019-06-27T15:03:41.930Z,1.93
2019-06-27T15:06:12.507Z,1.80
2019-06-27T15:08:40.523Z,1.70
2019-06-27T15:11:09.314Z,1.70
2019-06-27T15:13:37.821Z,1.70
2019-06-27T15:16:11.639Z,1.60
2019-06-27T15:18:36.551Z,1.60
2019-06-27T15:21:05.378Z,1.47
2019-06-27T15:23:33.877Z,1.60
2019-06-27T15:26:02.289Z,1.50
2019-06-27T15:28:34.065Z,1.53
2019-06-27T15:31:01.249Z,1.33
2019-06-27T15:33:29.932Z,1.43
2019-06-27T15:35:58.382Z,1.23
2019-06-27T15:38:26.813Z,1.20
2019-06-27T15:40:55.928Z,1.40
2019-06-27T15:43:24.582Z,1.10
2019-06-27T15:45:53.028Z,1.40
2019-06-27T15:48:21.593Z,1.47
2019-06-27T15:50:50.086Z,0.90
2019-06-27T15:53:18.552Z,1.50
2019-06-27T15:55:46.978Z,1.10
2019-06-27T15:58:15.771Z,0.90
2019-06-27T16:00:44.201Z,1.40
2019-06-27T16:03:12.635Z,1.10
2019-06-27T16:05:41.386Z,1.10
2019-06-27T16:08:10.178Z,1.00
2019-06-27T16:10:38.661Z,1.07
2019-06-27T16:13:07.442Z,0.93
2019-06-27T16:15:35.883Z,1.00
2019-06-27T16:18:04.466Z,1.20
2019-06-27T16:20:32.911Z,1.00
2019-06-27T16:23:01.406Z,0.87
2019-06-27T16:25:29.858Z,0.83
2019-06-27T16:27:58.302Z,0.80
2019-06-27T16:30:27.029Z,1.13
2019-06-27T16:32:55.472Z,0.80
2019-06-27T16:35:23.942Z,0.80
2019-06-27T16:37:52.408Z,0.90
2019-06-27T16:40:20.945Z,0.87
2019-06-27T16:42:49.378Z,0.80
2019-06-27T16:45:18.454Z,0.90
2019-06-27T16:47:46.885Z,0.90
2019-06-27T16:50:15.693Z,0.70
2019-06-27T16:52:44.125Z,0.87
2019-06-27T16:55:12.663Z,1.00
2019-06-27T16:57:41.171Z,0.80
2019-06-27T17:00:10.071Z,0.77
2019-06-27T17:02:38.496Z,0.77
2019-06-27T17:05:07.373Z,0.80
2019-06-27T17:07:35.802Z,0.80
2019-06-27T17:10:06.092Z,1.20
2019-06-27T17:12:34.666Z,0.90
2019-06-27T17:15:03.769Z,1.00
2019-06-27T17:17:32.192Z,0.60
2019-06-27T17:20:00.630Z,0.70
2019-06-27T17:22:29.110Z,0.70
2019-06-27T17:24:57.543Z,0.70
2019-06-27T17:27:26.346Z,0.50
2019-06-27T17:29:55.032Z,0.60
2019-06-27T17:32:23.810Z,0.70
2019-06-27T17:34:52.250Z,0.60
2019-06-27T17:37:21.083Z,0.60
2019-06-27T17:39:49.507Z,0.50
2019-06-27T17:42:17.956Z,0.57
2019-06-27T17:44:46.398Z,0.57
2019-06-27T17:47:14.846Z,0.60
2019-06-27T17:49:43.606Z,0.50
2019-06-27T17:52:12.045Z,0.60
2019-06-27T17:54:40.763Z,0.63
2019-06-27T17:57:09.265Z,0.60
2019-06-27T17:59:37.704Z,0.40
2019-06-27T18:02:06.448Z,0.60
2019-06-27T18:04:35.003Z,0.67
2019-06-27T18:07:13.656Z,0.70
2019-06-27T18:09:33.623Z,0.60
2019-06-27T18:12:02.106Z,0.70
2019-06-27T18:14:30.581Z,0.40
2019-06-27T18:16:59.037Z,0.60
2019-06-27T18:19:27.477Z,0.60
2019-06-27T18:21:55.951Z,0.60
2019-06-27T18:24:24.377Z,0.50
2019-06-27T18:26:52.843Z,0.57
2019-06-27T18:29:21.330Z,0.80
2019-06-27T18:31:49.772Z,0.70
2019-06-27T18:34:18.533Z,0.70
2019-06-27T18:36:47.073Z,0.63
2019-06-27T18:39:15.621Z,0.87
2019-06-27T18:41:44.042Z,0.60
2019-06-27T18:44:12.808Z,0.70
2019-06-27T18:46:41.331Z,0.70
2019-06-27T18:49:10.077Z,0.60
2019-06-27T18:51:38.502Z,0.70
2019-06-27T18:54:07.060Z,0.70
2019-06-27T18:56:35.822Z,0.70
2019-06-27T18:59:04.259Z,0.70
2019-06-27T19:01:32.974Z,0.70
2019-06-27T19:04:01.412Z,1.00
2019-06-27T19:06:30.268Z,0.80
2019-06-27T19:08:59.053Z,0.50
2019-06-27T19:11:27.829Z,0.60
2019-06-27T19:13:56.622Z,0.60
2019-06-27T19:16:25.049Z,1.27
2019-06-27T19:18:55.138Z,0.80
2019-06-27T19:21:31.691Z,0.90
2019-06-27T19:24:17.013Z,0.70
2019-06-27T19:26:47.026Z,0.77
2019-06-27T19:29:15.859Z,0.70
2019-06-27T19:31:44.642Z,0.73
2019-06-27T19:34:13.145Z,0.77
2019-06-27T19:36:42.010Z,0.87
2019-06-27T19:39:10.805Z,0.70
2019-06-27T19:41:39.589Z,0.90
2019-06-27T19:44:08.693Z,0.80
2019-06-27T19:46:37.470Z,0.70
2019-06-27T19:49:05.971Z,0.77
2019-06-27T19:51:34.410Z,0.83
2019-06-27T19:54:02.852Z,0.70
2019-06-27T19:56:31.293Z,0.93
2019-06-27T19:59:00.174Z,0.67
2019-06-27T20:01:28.611Z,0.80
2019-06-27T20:03:58.062Z,0.90
2019-06-27T20:06:26.532Z,0.80
2019-06-27T20:08:55.325Z,0.93
2019-06-27T20:11:23.761Z,0.80
2019-06-27T20:13:52.270Z,0.90
2019-06-27T20:16:21.031Z,0.93
2019-06-27T20:18:49.551Z,0.80
2019-06-27T20:21:18.122Z,1.13
2019-06-27T20:23:46.541Z,0.90
2019-06-27T20:26:14.942Z,1.00
2019-06-27T20:28:43.710Z,1.10
2019-06-27T20:31:12.118Z,0.80
2019-06-27T20:33:40.529Z,1.20
2019-06-27T20:36:09.449Z,1.00
2019-06-27T20:38:38.237Z,1.13
2019-06-27T20:41:06.919Z,0.83
2019-06-27T20:43:35.337Z,0.90
2019-06-27T20:46:03.743Z,1.10
2019-06-27T20:48:32.165Z,1.10
2019-06-27T20:51:00.648Z,0.90
2019-06-27T20:53:29.422Z,1.00
2019-06-27T20:55:58.110Z,1.37
2019-06-27T20:58:26.518Z,1.40
2019-06-27T21:00:55.191Z,1.03
2019-06-27T21:03:23.649Z,1.20
2019-06-27T21:05:52.336Z,1.07
2019-06-27T21:08:20.777Z,1.30
2019-06-27T21:10:49.491Z,0.97
2019-06-27T21:13:18.139Z,1.00
2019-06-27T21:15:50.148Z,0.90
2019-06-27T21:18:16.984Z,1.03
2019-06-27T21:20:45.679Z,1.20
2019-06-27T21:23:14.093Z,1.00
2019-06-27T21:25:42.578Z,1.23
2019-06-27T21:28:11.326Z,1.00
2019-06-27T21:30:39.737Z,1.00
2019-06-27T21:33:08.132Z,1.10
2019-06-27T21:35:36.558Z,0.97
2019-06-27T21:38:05.227Z,1.10
2019-06-27T21:40:33.642Z,1.13
2019-06-27T21:43:02.426Z,1.20
2019-06-27T21:45:30.888Z,1.17
2019-06-27T21:47:59.569Z,1.30
2019-06-27T21:50:28.258Z,1.20
2019-06-27T21:52:56.658Z,1.27
2019-06-27T21:55:25.410Z,1.20
2019-06-27T21:57:54.196Z,1.10
2019-06-27T22:00:23.594Z,1.03
2019-06-27T22:02:52.005Z,1.13
2019-06-27T22:05:21.176Z,1.17
2019-06-27T22:07:53.297Z,1.20
2019-06-27T22:10:20.337Z,1.40
2019-06-27T22:12:48.730Z,1.20
2019-06-27T22:15:17.201Z,1.50
2019-06-27T22:17:45.605Z,1.30
2019-06-27T22:20:15.834Z,1.57
2019-06-27T22:22:44.847Z,1.60
2019-06-27T22:25:13.593Z,1.40
2019-06-27T22:27:42.008Z,1.60
2019-06-27T22:30:11.598Z,1.47
2019-06-27T22:32:40.004Z,1.40
2019-06-27T22:35:09.690Z,1.37
2019-06-27T22:37:37.405Z,1.17
2019-06-27T22:40:27.343Z,1.53
2019-06-27T22:43:13.738Z,1.30
2019-06-27T22:46:00.346Z,1.40
2019-06-27T22:48:28.330Z,1.43
2019-06-27T22:50:58.735Z,1.00
2019-06-27T22:53:33.365Z,1.40
2019-06-27T22:56:01.873Z,1.70
2019-06-27T22:58:30.259Z,1.10
2019-06-27T23:00:58.741Z,1.13
2019-06-27T23:03:27.268Z,1.20
2019-06-27T23:05:55.938Z,1.10
2019-06-27T23:22:30.670Z,1.40
2019-06-27T23:24:59.349Z,1.40
2019-06-27T23:27:27.774Z,1.30
2019-06-27T23:29:56.177Z,1.27
2019-06-27T23:32:24.890Z,1.33
2019-06-27T23:34:53.577Z,1.37
2019-06-27T23:37:21.988Z,1.10
2019-06-27T23:39:50.807Z,1.23
2019-06-27T23:42:19.528Z,1.53
2019-06-27T23:44:47.930Z,1.30
2019-06-27T23:47:16.333Z,1.07
2019-06-27T23:49:44.733Z,1.27
2019-06-27T23:52:13.452Z,1.33
2019-06-27T23:54:42.134Z,1.33
2019-06-27T23:57:10.544Z,1.10
2019-06-27T23:59:38.949Z,1.27
